createdAt,value
2023-02-18T00:00:29.573Z,1028.78
2023-02-18T00:02:56.345Z,1028.65
2023-02-18T00:05:23.425Z,1028.63
2023-02-18T00:07:50.499Z,1028.58
2023-02-18T00:10:17.733Z,1028.56
2023-02-18T00:12:44.879Z,1028.57
2023-02-18T00:15:14.475Z,1028.51
2023-02-18T00:17:41.191Z,1028.59
2023-02-18T00:20:08.740Z,1028.61
2023-02-18T00:22:35.538Z,1028.67
2023-02-18T00:25:02.282Z,1028.69
2023-02-18T00:27:29.102Z,1028.64
2023-02-18T00:29:56.056Z,1028.57
2023-02-18T00:32:24.264Z,1028.57
2023-02-18T00:34:51.057Z,1028.60
2023-02-18T00:37:17.795Z,1028.64
2023-02-18T00:39:44.533Z,1028.56
2023-02-18T00:42:11.666Z,1028.59
2023-02-18T00:44:38.611Z,1028.56
2023-02-18T00:47:05.407Z,1028.54
2023-02-18T00:49:33.547Z,1028.47
2023-02-18T00:52:00.356Z,1028.62
2023-02-18T00:54:27.312Z,1028.53
2023-02-18T00:56:54.057Z,1028.55
2023-02-18T00:59:20.913Z,1028.61
2023-02-18T01:01:47.657Z,1028.60
2023-02-18T01:04:14.460Z,1028.62
2023-02-18T01:06:42.697Z,1028.45
2023-02-18T01:09:10.274Z,1028.46
2023-02-18T01:11:37.153Z,1028.54
2023-02-18T01:14:04.331Z,1028.46
2023-02-18T01:16:31.320Z,1028.51
2023-02-18T01:18:58.075Z,1028.48
2023-02-18T01:21:24.841Z,1028.42
2023-02-18T01:23:52.998Z,1028.31
2023-02-18T01:26:19.760Z,1028.33
2023-02-18T01:28:46.530Z,1028.36
2023-02-18T01:31:14.219Z,1028.37
2023-02-18T01:33:41.450Z,1028.31
2023-02-18T01:36:10.164Z,1028.24
2023-02-18T01:38:37.262Z,1028.32
2023-02-18T01:41:05.696Z,1028.31
2023-02-18T01:43:33.688Z,1028.21
2023-02-18T01:46:08.254Z,1028.19
2023-02-18T01:48:39.793Z,1028.14
2023-02-18T01:51:11.818Z,1028.14
2023-02-18T01:53:45.905Z,1028.03
2023-02-18T01:56:20.008Z,1028.02
2023-02-18T01:58:47.683Z,1028.03
2023-02-18T02:01:14.645Z,1028.00
2023-02-18T02:03:41.500Z,1027.98
2023-02-18T02:06:15.464Z,1027.91
2023-02-18T02:08:42.503Z,1028.04
2023-02-18T02:11:22.837Z,1028.03
2023-02-18T02:14:01.808Z,1028.09
2023-02-18T02:16:38.096Z,1027.92
2023-02-18T02:19:29.071Z,1027.89
2023-02-18T02:22:24.161Z,1027.96
2023-02-18T02:25:00.027Z,1028.01
2023-02-18T02:27:44.187Z,1027.88
2023-02-18T02:30:52.102Z,1027.93
2023-02-18T02:33:35.919Z,1027.82
2023-02-18T02:36:13.589Z,1027.81
2023-02-18T02:38:48.898Z,1027.85
2023-02-18T02:41:27.121Z,1027.80
2023-02-18T02:44:05.593Z,1027.87
2023-02-18T02:46:41.213Z,1027.73
2023-02-18T02:49:19.057Z,1027.79
2023-02-18T02:51:53.946Z,1027.75
2023-02-18T02:54:23.570Z,1027.69
2023-02-18T02:56:50.484Z,1027.59
2023-02-18T02:59:22.540Z,1027.61
2023-02-18T03:02:04.536Z,1027.63
2023-02-18T03:04:51.419Z,1027.56
2023-02-18T03:07:37.980Z,1027.73
2023-02-18T03:10:23.441Z,1027.68
2023-02-18T03:12:59.544Z,1027.66
2023-02-18T03:15:36.632Z,1027.76
2023-02-18T03:18:08.370Z,1027.69
2023-02-18T03:20:37.295Z,1027.69
2023-02-18T03:23:11.394Z,1027.79
2023-02-18T03:25:40.146Z,1027.83
2023-02-18T03:28:12.100Z,1027.87
2023-02-18T03:30:43.398Z,1027.76
2023-02-18T03:33:14.247Z,1027.74
2023-02-18T03:35:43.328Z,1027.70
2023-02-18T03:38:16.723Z,1027.70
2023-02-18T03:40:43.479Z,1027.70
2023-02-18T03:43:10.392Z,1027.70
2023-02-18T03:45:37.312Z,1027.66
2023-02-18T03:48:04.976Z,1027.73
2023-02-18T03:50:31.731Z,1027.69
2023-02-18T03:52:58.606Z,1027.60
2023-02-18T03:55:26.797Z,1027.71
2023-02-18T03:57:53.544Z,1027.70
2023-02-18T04:00:21.256Z,1027.64
2023-02-18T04:02:48.102Z,1027.66
2023-02-18T04:05:15.001Z,1027.56
2023-02-18T04:07:41.867Z,1027.58
2023-02-18T04:10:09.347Z,1027.45
2023-02-18T04:12:37.571Z,1027.43
2023-02-18T04:15:05.003Z,1027.42
2023-02-18T04:17:32.683Z,1027.54
2023-02-18T04:20:00.003Z,1027.58
2023-02-18T04:22:26.909Z,1027.59
2023-02-18T04:24:53.653Z,1027.42
2023-02-18T04:27:20.487Z,1027.40
2023-02-18T04:29:48.957Z,1027.45
2023-02-18T04:32:15.755Z,1027.48
2023-02-18T04:34:42.722Z,1027.48
2023-02-18T04:37:09.561Z,1027.42
2023-02-18T04:39:36.355Z,1027.31
2023-02-18T04:42:03.239Z,1027.28
2023-02-18T04:44:30.025Z,1027.29
2023-02-18T04:46:58.605Z,1027.33
2023-02-18T04:49:25.349Z,1027.19
2023-02-18T04:51:52.176Z,1027.29
2023-02-18T04:54:18.906Z,1027.24
2023-02-18T04:56:45.651Z,1027.43
2023-02-18T04:59:12.467Z,1027.32
2023-02-18T05:01:39.320Z,1027.22
2023-02-18T05:04:07.562Z,1027.27
2023-02-18T05:06:34.673Z,1027.31
2023-02-18T05:09:01.491Z,1027.40
2023-02-18T05:11:28.329Z,1027.24
2023-02-18T05:13:55.099Z,1027.37
2023-02-18T05:16:21.921Z,1027.43
2023-02-18T05:18:48.695Z,1027.41
2023-02-18T05:21:17.129Z,1027.34
2023-02-18T05:23:46.158Z,1027.26
2023-02-18T05:26:12.974Z,1027.21
2023-02-18T05:28:39.742Z,1027.29
2023-02-18T05:31:06.588Z,1027.37
2023-02-18T05:33:33.472Z,1027.38
2023-02-18T05:36:00.424Z,1027.43
2023-02-18T05:38:28.626Z,1027.36
2023-02-18T05:40:55.705Z,1027.43
2023-02-18T05:43:22.564Z,1027.25
2023-02-18T05:45:49.293Z,1027.28
2023-02-18T05:48:16.186Z,1027.38
2023-02-18T05:50:42.933Z,1027.37
2023-02-18T05:53:09.789Z,1027.39
2023-02-18T05:55:37.919Z,1027.48
2023-02-18T05:58:04.777Z,1027.52
2023-02-18T06:00:32.053Z,1027.35
2023-02-18T06:02:59.323Z,1027.34
2023-02-18T06:05:26.298Z,1027.38
2023-02-18T06:07:55.201Z,1027.41
2023-02-18T06:10:23.118Z,1027.37
2023-02-18T06:12:51.236Z,1027.50
2023-02-18T06:15:18.168Z,1027.48
2023-02-18T06:17:44.914Z,1027.41
2023-02-18T06:20:12.549Z,1027.54
2023-02-18T06:22:39.403Z,1027.54
2023-02-18T06:25:06.844Z,1027.55
2023-02-18T06:27:33.660Z,1027.54
2023-02-18T06:30:01.859Z,1027.60
2023-02-18T06:32:28.778Z,1027.50
2023-02-18T06:34:55.622Z,1027.45
2023-02-18T06:37:22.375Z,1027.47
2023-02-18T06:39:51.396Z,1027.48
2023-02-18T06:42:18.284Z,1027.43
2023-02-18T06:44:44.992Z,1027.50
2023-02-18T06:47:13.098Z,1027.59
2023-02-18T06:49:39.917Z,1027.59
2023-02-18T06:52:06.645Z,1027.59
2023-02-18T06:54:34.190Z,1027.60
2023-02-18T06:57:01.011Z,1027.56
2023-02-18T06:59:27.772Z,1027.47
2023-02-18T07:01:54.701Z,1027.54
2023-02-18T07:04:22.890Z,1027.49
2023-02-18T07:06:49.655Z,1027.49
2023-02-18T07:09:16.521Z,1027.42
2023-02-18T07:11:43.279Z,1027.48
2023-02-18T07:14:10.207Z,1027.46
2023-02-18T07:16:36.975Z,1027.40
2023-02-18T07:19:03.872Z,1027.52
2023-02-18T07:21:31.962Z,1027.50
2023-02-18T07:23:58.876Z,1027.39
2023-02-18T07:26:25.714Z,1027.44
2023-02-18T07:28:53.586Z,1027.37
2023-02-18T07:31:20.472Z,1027.41
2023-02-18T07:33:47.373Z,1027.37
2023-02-18T07:36:14.300Z,1027.37
2023-02-18T07:38:43.066Z,1027.36
2023-02-18T07:41:17.169Z,1027.28
2023-02-18T07:43:43.921Z,1027.30
2023-02-18T07:46:11.677Z,1027.45
2023-02-18T07:48:38.591Z,1027.33
2023-02-18T07:51:06.735Z,1027.41
2023-02-18T07:53:33.606Z,1027.33
2023-02-18T07:56:01.879Z,1027.25
2023-02-18T07:58:30.986Z,1027.34
2023-02-18T08:00:58.188Z,1027.15
2023-02-18T08:03:26.810Z,1027.20
2023-02-18T08:05:54.721Z,1027.10
2023-02-18T08:08:22.938Z,1027.20
2023-02-18T08:10:50.986Z,1027.16
2023-02-18T08:13:19.263Z,1027.17
2023-02-18T08:15:46.346Z,1027.10
2023-02-18T08:18:18.066Z,1027.07
2023-02-18T08:20:44.820Z,1027.11
2023-02-18T08:23:11.601Z,1027.05
2023-02-18T08:25:38.384Z,1027.00
2023-02-18T08:28:05.304Z,1026.91
2023-02-18T08:30:33.631Z,1026.70
2023-02-18T08:33:00.950Z,1026.63
2023-02-18T08:35:27.890Z,1026.61
2023-02-18T08:37:55.154Z,1026.45
2023-02-18T08:40:22.843Z,1026.33
2023-02-18T08:42:49.734Z,1026.31
2023-02-18T08:45:17.676Z,1026.10
2023-02-18T08:48:17.284Z,1025.91
2023-02-18T08:50:33.109Z,1025.69
2023-02-18T08:53:00.228Z,1025.63
2023-02-18T08:55:27.170Z,1025.42
2023-02-18T08:57:54.056Z,1025.43
2023-02-18T09:00:21.194Z,1025.31
2023-02-18T09:02:49.383Z,1025.23
2023-02-18T09:05:16.705Z,1025.04
2023-02-18T09:07:43.628Z,1024.91
2023-02-18T09:10:11.913Z,1024.69
2023-02-18T09:12:39.264Z,1024.64
2023-02-18T09:15:06.796Z,1024.54
2023-02-18T09:17:33.789Z,1024.45
2023-02-18T09:20:02.322Z,1024.30
2023-02-18T09:22:29.534Z,1024.11
2023-02-18T09:24:56.532Z,1024.08
2023-02-18T09:27:23.371Z,1024.04
2023-02-18T09:29:50.268Z,1023.93
2023-02-18T09:32:28.804Z,1023.91
2023-02-18T09:35:02.370Z,1024.03
2023-02-18T09:37:29.138Z,1024.13
2023-02-18T09:39:55.893Z,1024.25
2023-02-18T09:42:29.286Z,1024.36
2023-02-18T09:44:59.694Z,1024.44
2023-02-18T09:47:32.969Z,1024.48
2023-02-18T09:50:05.478Z,1024.48
2023-02-18T09:52:34.291Z,1024.50
2023-02-18T09:55:01.999Z,1024.53
2023-02-18T09:57:36.435Z,1024.48
2023-02-18T10:00:10.975Z,1024.37
2023-02-18T10:02:39.925Z,1024.22
2023-02-18T10:05:15.240Z,1024.29
2023-02-18T10:07:44.001Z,1024.30
2023-02-18T10:10:21.265Z,1024.21
2023-02-18T10:12:48.937Z,1024.12
2023-02-18T10:15:22.364Z,1024.12
2023-02-18T10:17:50.900Z,1024.06
2023-02-18T10:20:24.773Z,1023.80
2023-02-18T10:22:54.464Z,1023.74
2023-02-18T10:25:24.303Z,1023.60
2023-02-18T10:27:53.164Z,1023.61
2023-02-18T10:30:27.668Z,1023.61
2023-02-18T10:33:00.925Z,1023.54
2023-02-18T10:35:34.727Z,1023.45
2023-02-18T10:38:12.199Z,1023.43
2023-02-18T10:40:51.350Z,1023.38
2023-02-18T10:43:26.736Z,1023.30
2023-02-18T10:46:01.744Z,1023.36
2023-02-18T10:48:51.101Z,1023.32
2023-02-18T10:51:22.072Z,1023.14
2023-02-18T10:53:52.233Z,1023.00
2023-02-18T10:56:39.518Z,1023.00
2023-02-18T10:59:12.195Z,1022.96
2023-02-18T11:01:41.030Z,1022.92
2023-02-18T11:04:14.116Z,1022.92
2023-02-18T11:06:45.947Z,1023.02
2023-02-18T11:09:28.900Z,1023.01
2023-02-18T11:12:08.384Z,1023.02
2023-02-18T11:14:44.612Z,1023.03
2023-02-18T11:17:22.507Z,1023.06
2023-02-18T11:19:55.401Z,1023.07
2023-02-18T11:22:25.965Z,1022.99
2023-02-18T11:24:56.209Z,1023.04
2023-02-18T11:27:27.707Z,1023.13
2023-02-18T11:30:00.359Z,1023.02
2023-02-18T11:32:28.300Z,1023.15
2023-02-18T11:34:55.612Z,1023.09
2023-02-18T11:37:24.838Z,1023.10
2023-02-18T11:39:54.478Z,1023.00
2023-02-18T11:42:24.796Z,1023.02
2023-02-18T11:44:53.942Z,1023.01
2023-02-18T11:47:23.988Z,1023.11
2023-02-18T11:50:04.702Z,1023.17
2023-02-18T11:52:37.484Z,1023.14
2023-02-18T11:55:07.837Z,1023.09
2023-02-18T11:57:38.460Z,1022.95
2023-02-18T12:00:15.199Z,1022.88
2023-02-18T12:02:42.143Z,1022.84
2023-02-18T12:05:15.301Z,1022.84
2023-02-18T12:07:47.088Z,1022.90
2023-02-18T12:10:20.384Z,1022.83
2023-02-18T12:12:51.604Z,1022.74
2023-02-18T12:15:26.975Z,1022.81
2023-02-18T12:18:13.841Z,1022.80
2023-02-18T12:20:54.402Z,1022.74
2023-02-18T12:23:30.103Z,1022.82
2023-02-18T12:26:03.620Z,1022.70
2023-02-18T12:28:44.891Z,1022.65
2023-02-18T12:31:29.249Z,1022.51
2023-02-18T12:34:07.283Z,1022.47
2023-02-18T12:36:46.474Z,1022.44
2023-02-18T12:39:28.868Z,1022.43
2023-02-18T12:42:13.297Z,1022.52
2023-02-18T12:44:45.528Z,1022.50
2023-02-18T12:47:44.243Z,1022.40
2023-02-18T12:50:57.997Z,1022.25
2023-02-18T12:53:41.235Z,1022.32
2023-02-18T12:56:35.092Z,1022.17
2023-02-18T12:59:14.711Z,1022.10
2023-02-18T13:01:52.778Z,1022.15
2023-02-18T13:04:36.831Z,1022.19
2023-02-18T13:07:38.097Z,1022.05
2023-02-18T13:10:53.450Z,1022.05
2023-02-18T13:13:25.590Z,1021.99
2023-02-18T13:15:56.846Z,1021.82
2023-02-18T13:18:29.037Z,1021.83
2023-02-18T13:20:59.734Z,1021.59
2023-02-18T13:23:30.270Z,1021.46
2023-02-18T13:26:01.209Z,1021.41
2023-02-18T13:28:37.453Z,1021.30
2023-02-18T13:31:22.737Z,1021.14
2023-02-18T13:33:57.581Z,1021.04
2023-02-18T13:36:36.346Z,1020.79
2023-02-18T13:39:07.080Z,1020.77
2023-02-18T13:41:39.010Z,1020.73
2023-02-18T13:44:56.160Z,1020.76
2023-02-18T13:47:37.619Z,1020.65
2023-02-18T13:50:16.993Z,1020.55
2023-02-18T13:52:43.855Z,1020.52
2023-02-18T13:55:20.561Z,1020.50
2023-02-18T13:57:49.804Z,1020.42
2023-02-18T14:00:24.243Z,1020.42
2023-02-18T14:02:59.738Z,1020.37
2023-02-18T14:05:39.480Z,1020.32
2023-02-18T14:08:13.706Z,1020.40
2023-02-18T14:10:40.468Z,1020.23
2023-02-18T14:13:41.504Z,1020.22
2023-02-18T14:16:11.232Z,1020.34
2023-02-18T14:18:59.234Z,1020.44
2023-02-18T14:21:40.320Z,1020.32
2023-02-18T14:24:09.598Z,1020.31
2023-02-18T14:26:40.335Z,1020.21
2023-02-18T14:29:14.068Z,1020.22
2023-02-18T14:31:52.431Z,1020.09
2023-02-18T14:35:02.381Z,1019.96
2023-02-18T14:38:02.518Z,1019.88
2023-02-18T14:40:58.580Z,1019.87
2023-02-18T14:43:46.941Z,1019.80
2023-02-18T14:46:25.987Z,1019.74
2023-02-18T14:49:08.685Z,1019.70
2023-02-18T14:51:36.165Z,1019.59
2023-02-18T14:54:05.438Z,1019.64
2023-02-18T14:56:37.263Z,1019.60
2023-02-18T14:59:05.471Z,1019.41
2023-02-18T15:01:34.304Z,1019.45
2023-02-18T15:04:03.936Z,1019.50
2023-02-18T15:06:32.715Z,1019.40
2023-02-18T15:08:59.851Z,1019.51
2023-02-18T15:11:35.529Z,1019.57
2023-02-18T15:14:10.338Z,1019.52
2023-02-18T15:16:37.467Z,1019.56
2023-02-18T15:19:13.164Z,1019.62
2023-02-18T15:21:43.099Z,1019.72
2023-02-18T15:24:19.726Z,1019.63
2023-02-18T15:26:48.962Z,1019.73
2023-02-18T15:29:19.381Z,1019.79
2023-02-18T15:31:47.548Z,1020.00
2023-02-18T15:34:30.249Z,1020.13
2023-02-18T15:37:02.089Z,1020.26
2023-02-18T15:39:30.776Z,1020.28
2023-02-18T15:42:01.088Z,1020.48
2023-02-18T15:44:31.065Z,1020.63
2023-02-18T15:47:01.149Z,1020.79
2023-02-18T15:49:29.950Z,1020.94
2023-02-18T15:52:00.742Z,1021.00
2023-02-18T15:54:28.207Z,1020.99
2023-02-18T15:57:00.698Z,1020.96
2023-02-18T15:59:30.120Z,1021.04
2023-02-18T16:02:02.685Z,1021.15
2023-02-18T16:04:34.289Z,1021.24
2023-02-18T16:07:04.702Z,1021.20
2023-02-18T16:09:33.933Z,1021.35
2023-02-18T16:12:06.095Z,1021.43
2023-02-18T16:14:35.112Z,1021.43
2023-02-18T16:17:14.136Z,1021.41
2023-02-18T16:20:03.244Z,1021.45
2023-02-18T16:22:35.863Z,1021.50
2023-02-18T16:25:14.499Z,1021.59
2023-02-18T16:27:49.920Z,1021.58
2023-02-18T16:30:23.481Z,1021.49
2023-02-18T16:32:51.266Z,1021.55
2023-02-18T16:35:20.108Z,1021.61
2023-02-18T16:37:47.208Z,1021.68
2023-02-18T16:40:28.080Z,1021.82
2023-02-18T16:42:56.073Z,1021.91
2023-02-18T16:45:33.312Z,1021.84
2023-02-18T16:48:00.604Z,1021.73
2023-02-18T16:50:31.447Z,1021.68
2023-02-18T16:52:59.310Z,1021.67
2023-02-18T16:55:28.424Z,1021.62
2023-02-18T16:57:55.682Z,1021.72
2023-02-18T17:00:23.728Z,1021.76
2023-02-18T17:02:55.748Z,1021.73
2023-02-18T17:05:27.649Z,1021.82
2023-02-18T17:08:04.764Z,1021.92
2023-02-18T17:10:35.144Z,1021.94
2023-02-18T17:13:02.530Z,1022.02
2023-02-18T17:15:31.991Z,1022.13
2023-02-18T17:17:59.067Z,1022.10
2023-02-18T17:20:26.820Z,1022.06
2023-02-18T17:22:53.607Z,1022.18
2023-02-18T17:25:28.185Z,1022.12
2023-02-18T17:27:55.022Z,1022.27
2023-02-18T17:30:22.174Z,1022.24
2023-02-18T17:32:49.680Z,1022.22
2023-02-18T17:35:18.673Z,1022.23
2023-02-18T17:37:45.764Z,1022.26
2023-02-18T17:40:17.013Z,1022.17
2023-02-18T17:42:45.426Z,1022.23
2023-02-18T17:45:20.452Z,1022.41
2023-02-18T17:47:47.732Z,1022.39
2023-02-18T17:50:14.729Z,1022.53
2023-02-18T17:52:42.089Z,1022.53
2023-02-18T17:55:22.370Z,1022.76
2023-02-18T17:57:52.031Z,1022.79
2023-02-18T18:00:22.356Z,1022.80
2023-02-18T18:02:49.199Z,1022.73
2023-02-18T18:05:21.942Z,1022.83
2023-02-18T18:07:49.385Z,1022.82
2023-02-18T18:10:17.248Z,1022.62
2023-02-18T18:12:44.094Z,1022.63
2023-02-18T18:15:28.654Z,1022.64
2023-02-18T18:17:55.758Z,1022.59
2023-02-18T18:20:23.168Z,1022.65
2023-02-18T18:22:50.928Z,1022.70
2023-02-18T18:25:20.913Z,1022.59
2023-02-18T18:27:48.108Z,1022.65
2023-02-18T18:30:15.292Z,1022.77
2023-02-18T18:32:43.473Z,1022.80
2023-02-18T18:35:19.223Z,1022.60
2023-02-18T18:37:46.046Z,1022.65
2023-02-18T18:40:12.908Z,1022.72
2023-02-18T18:42:39.788Z,1022.65
2023-02-18T18:45:16.444Z,1022.66
2023-02-18T18:47:44.761Z,1022.72
2023-02-18T18:50:12.387Z,1022.83
2023-02-18T18:52:39.453Z,1022.99
2023-02-18T18:55:18.389Z,1022.89
2023-02-18T18:57:47.144Z,1022.90
2023-02-18T19:00:15.203Z,1022.85
2023-02-18T19:02:42.077Z,1022.86
2023-02-18T19:05:17.890Z,1022.94
2023-02-18T19:07:44.755Z,1023.07
2023-02-18T19:10:11.594Z,1023.00
2023-02-18T19:12:38.462Z,1022.90
2023-02-18T19:15:05.863Z,1022.91
2023-02-18T19:17:32.608Z,1023.02
2023-02-18T19:19:59.389Z,1023.09
2023-02-18T19:22:27.507Z,1023.18
2023-02-18T19:24:56.276Z,1023.17
2023-02-18T19:27:23.131Z,1023.02
2023-02-18T19:29:49.997Z,1023.09
2023-02-18T19:32:16.831Z,1023.07
2023-02-18T19:34:43.568Z,1023.21
2023-02-18T19:37:10.440Z,1023.08
2023-02-18T19:39:38.578Z,1023.19
2023-02-18T19:42:05.468Z,1023.21
2023-02-18T19:44:33.283Z,1023.46
2023-02-18T19:47:00.318Z,1023.30
2023-02-18T19:49:28.077Z,1023.40
2023-02-18T19:51:57.770Z,1023.40
2023-02-18T19:54:24.638Z,1023.22
2023-02-18T19:56:52.925Z,1023.51
2023-02-18T19:59:19.797Z,1023.51
2023-02-18T20:01:46.592Z,1023.46
2023-02-18T20:04:13.473Z,1023.46
2023-02-18T20:06:40.309Z,1023.53
2023-02-18T20:09:07.168Z,1023.41
2023-02-18T20:11:34.046Z,1023.60
2023-02-18T20:14:02.428Z,1023.51
2023-02-18T20:16:30.590Z,1023.54
2023-02-18T20:18:57.355Z,1023.61
2023-02-18T20:21:24.179Z,1023.55
2023-02-18T20:23:53.389Z,1023.58
2023-02-18T20:26:20.310Z,1023.47
2023-02-18T20:28:47.473Z,1023.67
2023-02-18T20:31:16.490Z,1023.57
2023-02-18T20:33:43.721Z,1023.49
2023-02-18T20:36:13.405Z,1023.43
2023-02-18T20:38:40.401Z,1023.48
2023-02-18T20:41:09.413Z,1023.50
2023-02-18T20:43:36.693Z,1023.49
2023-02-18T20:46:04.714Z,1023.58
2023-02-18T20:48:33.753Z,1023.62
2023-02-18T20:51:04.160Z,1023.54
2023-02-18T20:53:31.362Z,1023.56
2023-02-18T20:55:58.466Z,1023.43
2023-02-18T20:58:25.648Z,1023.55
2023-02-18T21:00:59.502Z,1023.68
2023-02-18T21:03:27.129Z,1023.80
2023-02-18T21:06:00.176Z,1023.48
2023-02-18T21:08:27.692Z,1023.45
2023-02-18T21:10:55.982Z,1023.68
2023-02-18T21:13:24.362Z,1023.55
2023-02-18T21:15:51.821Z,1023.84
2023-02-18T21:18:19.080Z,1023.67
2023-02-18T21:20:46.253Z,1023.72
2023-02-18T21:23:14.468Z,1023.76
2023-02-18T21:25:41.356Z,1023.60
2023-02-18T21:28:08.469Z,1023.60
2023-02-18T21:30:36.561Z,1023.75
2023-02-18T21:33:04.581Z,1023.72
2023-02-18T21:35:31.822Z,1023.66
2023-02-18T21:37:58.584Z,1023.74
2023-02-18T21:40:26.829Z,1023.69
2023-02-18T21:42:53.603Z,1023.88
2023-02-18T21:45:20.375Z,1023.89
2023-02-18T21:47:47.424Z,1023.90
2023-02-18T21:50:15.749Z,1023.90
2023-02-18T21:52:43.397Z,1023.97
2023-02-18T21:55:10.909Z,1023.95
2023-02-18T21:57:39.157Z,1023.82
2023-02-18T22:00:19.575Z,1023.92
2023-02-18T22:02:47.010Z,1023.83
2023-02-18T22:05:13.890Z,1023.98
2023-02-18T22:07:40.620Z,1023.86
2023-02-18T22:10:07.698Z,1023.65
2023-02-18T22:12:34.458Z,1023.79
2023-02-18T22:15:02.587Z,1023.82
2023-02-18T22:17:29.360Z,1023.79
2023-02-18T22:19:56.185Z,1023.90
2023-02-18T22:22:23.072Z,1023.85
2023-02-18T22:24:50.537Z,1024.05
2023-02-18T22:27:17.419Z,1024.05
2023-02-18T22:29:44.144Z,1024.06
2023-02-18T22:32:12.346Z,1024.01
2023-02-18T22:34:39.486Z,1024.21
2023-02-18T22:37:06.515Z,1024.03
2023-02-18T22:39:33.304Z,1024.05
2023-02-18T22:42:00.164Z,1023.99
2023-02-18T22:44:26.967Z,1024.13
2023-02-18T22:46:55.425Z,1024.14
2023-02-18T22:49:24.141Z,1024.17
2023-02-18T22:51:52.716Z,1024.09
2023-02-18T22:54:20.948Z,1024.08
2023-02-18T22:56:48.459Z,1024.21
2023-02-18T22:59:17.670Z,1024.34
2023-02-18T23:01:46.575Z,1024.19
2023-02-18T23:04:16.096Z,1024.13
2023-02-18T23:06:46.390Z,1024.25
2023-02-18T23:09:15.307Z,1024.30
2023-02-18T23:11:42.301Z,1024.56
2023-02-18T23:14:09.300Z,1024.45
2023-02-18T23:16:36.608Z,1024.28
2023-02-18T23:19:03.337Z,1024.36
2023-02-18T23:21:30.087Z,1024.36
2023-02-18T23:23:58.174Z,1024.29
2023-02-18T23:26:25.871Z,1024.27
2023-02-18T23:28:53.456Z,1024.24
2023-02-18T23:31:22.088Z,1024.21
2023-02-18T23:33:50.749Z,1024.25
2023-02-18T23:36:20.593Z,1024.45
2023-02-18T23:38:48.055Z,1024.49
2023-02-18T23:41:16.535Z,1024.39
2023-02-18T23:43:43.310Z,1024.42
2023-02-18T23:46:10.175Z,1024.40
2023-02-18T23:48:38.435Z,1024.26
2023-02-18T23:51:07.733Z,1024.20
2023-02-18T23:53:36.387Z,1024.22
2023-02-18T23:56:06.482Z,1024.17
2023-02-18T23:58:35.210Z,1024.16
